TimeEDT,TemperatureF,Dew PointF,Humidity,Sea Level PressureIn,VisibilityMPH,Wind Direction,Wind SpeedMPH,Gust SpeedMPH,PrecipitationIn,Events,Conditions,WindDirDegrees,DateUTC
12:32 AM,66.2,62.6,88,29.72,10.0,South,10.4,-,N/A,,Scattered Clouds,190,2013-05-24 04:32:00
12:53 AM,66.9,63.0,87,29.69,10.0,South,10.4,-,N/A,,Mostly Cloudy,190,2013-05-24 04:53:00
1:19 AM,68.0,62.6,83,29.71,10.0,South,6.9,-,0.00,Rain,Light Rain,190,2013-05-24 05:19:00
1:41 AM,66.2,64.4,94,29.71,10.0,SSW,5.8,-,0.01,Rain,Light Rain,200,2013-05-24 05:41:00
1:53 AM,66.9,64.0,90,29.68,10.0,SSW,6.9,-,0.01,Rain,Light Rain,200,2013-05-24 05:53:00
1:55 AM,66.2,64.4,94,29.70,9.0,SSW,5.8,-,0.00,Rain,Light Rain,200,2013-05-24 05:55:00
2:12 AM,66.2,64.4,94,29.70,8.0,South,4.6,-,0.02,Rain,Light Rain,180,2013-05-24 06:12:00
2:22 AM,66.2,64.4,94,29.69,10.0,South,4.6,-,0.02,Rain,Light Rain,180,2013-05-24 06:22:00
2:53 AM,66.0,64.0,93,29.65,10.0,South,3.5,-,0.03,,Overcast,190,2013-05-24 06:53:00
3:53 AM,66.0,63.0,90,29.64,10.0,South,4.6,-,N/A,,Overcast,190,2013-05-24 07:53:00
4:53 AM,63.0,61.0,93,29.64,6.0,North,4.6,-,0.07,Rain,Rain,360,2013-05-24 08:53:00
5:53 AM,63.0,61.0,93,29.62,5.0,North,4.6,-,0.06,Rain,Light Rain,10,2013-05-24 09:53:00
6:40 AM,62.6,60.8,94,29.65,7.0,West,4.6,-,0.01,,Overcast,280,2013-05-24 10:40:00
6:53 AM,63.0,61.0,93,29.64,9.0,West,3.5,-,0.01,,Overcast,280,2013-05-24 10:53:00
7:15 AM,62.6,60.8,94,29.66,2.5,Calm,Calm,-,N/A,,Overcast,0,2013-05-24 11:15:00
7:18 AM,62.6,60.8,94,29.66,3.0,Calm,Calm,-,N/A,,Overcast,0,2013-05-24 11:18:00
7:53 AM,63.0,61.0,93,29.65,6.0,Calm,Calm,-,0.00,Rain,Light Rain,0,2013-05-24 11:53:00
8:00 AM,64.4,60.8,88,29.67,2.0,Calm,Calm,-,0.02,Rain,Rain,0,2013-05-24 12:00:00
8:12 AM,62.6,60.8,94,29.68,2.0,Calm,Calm,-,0.03,Rain,Light Rain,0,2013-05-24 12:12:00
8:53 AM,64.0,62.1,93,29.68,5.0,Calm,Calm,-,0.03,,Overcast,0,2013-05-24 12:53:00
9:02 AM,64.4,62.6,94,29.70,8.0,South,3.5,-,N/A,,Overcast,170,2013-05-24 13:02:00
9:53 AM,60.1,57.0,90,29.70,10.0,NW,9.2,-,N/A,,Overcast,320,2013-05-24 13:53:00
10:00 AM,59.0,55.4,88,29.73,3.0,NNW,11.5,17.3,0.03,Rain,Light Rain,340,2013-05-24 14:00:00
10:03 AM,57.2,55.4,94,29.73,1.8,NNE,8.1,17.3,0.05,Rain,Rain,20,2013-05-24 14:03:00
10:11 AM,57.2,55.4,94,29.74,3.0,Variable,4.6,18.4,0.06,Rain,Light Rain,0,2013-05-24 14:11:00
10:53 AM,55.9,52.0,87,29.76,10.0,NNW,10.4,19.6,0.06,,Overcast,340,2013-05-24 14:53:00
11:53 AM,54.0,48.9,83,29.80,10.0,North,6.9,-,N/A,,Overcast,360,2013-05-24 15:53:00
12:00 PM,55.4,48.2,77,29.82,10.0,NNW,4.6,-,N/A,,Overcast,340,2013-05-24 16:00:00
12:19 PM,53.6,48.2,82,29.82,10.0,North,6.9,-,N/A,,Overcast,10,2013-05-24 16:19:00
12:53 PM,53.1,46.9,80,29.81,10.0,NNW,10.4,-,N/A,,Overcast,330,2013-05-24 16:53:00
1:53 PM,53.1,46.0,77,29.83,10.0,NNW,8.1,17.3,N/A,,Overcast,340,2013-05-24 17:53:00
2:16 PM,53.6,46.4,77,29.85,10.0,NNW,10.4,-,N/A,,Overcast,330,2013-05-24 18:16:00
2:53 PM,52.0,45.0,77,29.83,10.0,NW,13.8,21.9,N/A,,Overcast,320,2013-05-24 18:53:00
3:53 PM,51.1,44.1,77,29.85,10.0,NW,11.5,20.7,N/A,,Overcast,320,2013-05-24 19:53:00
4:53 PM,51.1,44.1,77,29.86,10.0,NNW,9.2,18.4,N/A,,Overcast,340,2013-05-24 20:53:00
5:53 PM,50.0,43.0,77,29.88,10.0,NNW,10.4,16.1,0.00,Rain,Light Rain,330,2013-05-24 21:53:00
6:53 PM,48.9,42.1,77,29.88,10.0,North,6.9,-,0.00,,Overcast,10,2013-05-24 22:53:00
7:53 PM,48.0,42.1,80,29.89,10.0,North,8.1,-,0.00,Rain,Light Rain,360,2013-05-24 23:53:00
8:53 PM,46.9,44.1,90,29.89,9.0,Variable,5.8,-,0.04,Rain,Light Rain,0,2013-05-25 00:53:00
9:53 PM,46.0,44.1,93,29.91,5.0,NNW,5.8,-,0.09,Rain,Light Rain,330,2013-05-25 01:53:00
10:12 PM,46.4,44.6,93,29.91,9.0,NNW,4.6,-,0.00,Rain,Light Rain,330,2013-05-25 02:12:00
10:26 PM,46.4,44.6,93,29.91,6.0,North,3.5,-,0.01,Rain,Light Rain,350,2013-05-25 02:26:00
10:53 PM,46.9,44.1,90,29.91,4.0,NW,3.5,-,0.05,Rain,Light Rain,310,2013-05-25 02:53:00
11:10 PM,46.4,44.6,93,29.92,4.0,NW,4.6,-,0.04,Rain,Light Rain,310,2013-05-25 03:10:00
11:44 PM,46.4,44.6,93,29.91,8.0,NNW,3.5,-,0.05,Rain,Light Rain,330,2013-05-25 03:44:00
11:53 PM,46.9,44.1,90,29.91,9.0,Calm,Calm,-,0.05,Rain,Light Rain,0,2013-05-25 03:53:00